sensor_id;sensor_type;location;lat;lon;timestamp;temperature;humidity
11925;DHT22;6022;48.768;18.608;2024-01-30T00:01:27;-1.10;99.90
11925;DHT22;6022;48.768;18.608;2024-01-30T00:03:54;-1.20;99.90
11925;DHT22;6022;48.768;18.608;2024-01-30T00:06:21;-1.00;99.90
11925;DHT22;6022;48.768;18.608;2024-01-30T00:08:49;-1.40;99.90
11925;DHT22;6022;48.768;18.608;2024-01-30T00:11:16;-1.20;99.90
11925;DHT22;6022;48.768;18.608;2024-01-30T00:13:44;-1.30;99.90
11925;DHT22;6022;48.768;18.608;2024-01-30T00:16:24;-1.20;99.90
11925;DHT22;6022;48.768;18.608;2024-01-30T00:18:52;-1.30;99.90
11925;DHT22;6022;48.768;18.608;2024-01-30T00:21:20;-1.30;99.90
11925;DHT22;6022;48.768;18.608;2024-01-30T00:23:48;-1.30;99.90
11925;DHT22;6022;48.768;18.608;2024-01-30T00:26:16;-1.30;99.90
11925;DHT22;6022;48.768;18.608;2024-01-30T00:28:43;-1.40;99.90
11925;DHT22;6022;48.768;18.608;2024-01-30T00:31:13;-1.50;99.90
11925;DHT22;6022;48.768;18.608;2024-01-30T00:33:40;-1.40;99.90
11925;DHT22;6022;48.768;18.608;2024-01-30T00:36:09;-1.40;99.90
11925;DHT22;6022;48.768;18.608;2024-01-30T00:38:37;-1.50;99.90
11925;DHT22;6022;48.768;18.608;2024-01-30T00:41:04;-1.30;99.90
11925;DHT22;6022;48.768;18.608;2024-01-30T00:43:31;-1.50;99.90
11925;DHT22;6022;48.768;18.608;2024-01-30T00:45:59;-1.50;99.90
11925;DHT22;6022;48.768;18.608;2024-01-30T00:48:26;-1.50;99.90
11925;DHT22;6022;48.768;18.608;2024-01-30T00:50:54;-1.50;99.90
11925;DHT22;6022;48.768;18.608;2024-01-30T00:53:21;-1.50;99.90
11925;DHT22;6022;48.768;18.608;2024-01-30T00:55:48;-1.50;99.90
11925;DHT22;6022;48.768;18.608;2024-01-30T00:58:15;-1.50;99.90
11925;DHT22;6022;48.768;18.608;2024-01-30T01:00:43;-1.60;99.90
11925;DHT22;6022;48.768;18.608;2024-01-30T01:03:10;-1.40;99.90
11925;DHT22;6022;48.768;18.608;2024-01-30T01:05:38;-1.60;99.90
11925;DHT22;6022;48.768;18.608;2024-01-30T01:08:06;-1.70;99.90
11925;DHT22;6022;48.768;18.608;2024-01-30T01:10:33;-1.70;99.90
11925;DHT22;6022;48.768;18.608;2024-01-30T01:13:00;-1.60;99.90
11925;DHT22;6022;48.768;18.608;2024-01-30T01:15:28;-2.10;99.90
11925;DHT22;6022;48.768;18.608;2024-01-30T01:17:56;-1.60;99.90
11925;DHT22;6022;48.768;18.608;2024-01-30T01:20:24;-1.90;99.90
11925;DHT22;6022;48.768;18.608;2024-01-30T01:22:51;-1.60;99.90
11925;DHT22;6022;48.768;18.608;2024-01-30T01:25:19;-1.70;99.90
11925;DHT22;6022;48.768;18.608;2024-01-30T01:27:47;-1.70;99.90
11925;DHT22;6022;48.768;18.608;2024-01-30T01:30:24;-1.60;99.90
11925;DHT22;6022;48.768;18.608;2024-01-30T01:33:21;-1.70;99.90
11925;DHT22;6022;48.768;18.608;2024-01-30T01:35:48;-1.70;99.90
11925;DHT22;6022;48.768;18.608;2024-01-30T01:38:17;-1.70;99.90
11925;DHT22;6022;48.768;18.608;2024-01-30T01:40:44;-1.80;99.90
11925;DHT22;6022;48.768;18.608;2024-01-30T01:43:11;-1.80;99.90
11925;DHT22;6022;48.768;18.608;2024-01-30T01:45:38;-2.10;99.90
11925;DHT22;6022;48.768;18.608;2024-01-30T01:48:06;-1.80;99.90
11925;DHT22;6022;48.768;18.608;2024-01-30T01:50:36;-1.90;99.90
11925;DHT22;6022;48.768;18.608;2024-01-30T01:53:06;-2.10;99.90
11925;DHT22;6022;48.768;18.608;2024-01-30T01:55:35;-2.30;99.90
11925;DHT22;6022;48.768;18.608;2024-01-30T01:58:02;-1.80;99.90
11925;DHT22;6022;48.768;18.608;2024-01-30T02:00:30;-2.10;99.90
11925;DHT22;6022;48.768;18.608;2024-01-30T02:02:58;-2.40;99.90
11925;DHT22;6022;48.768;18.608;2024-01-30T02:05:27;-2.20;99.90
11925;DHT22;6022;48.768;18.608;2024-01-30T02:07:54;-2.20;99.90
11925;DHT22;6022;48.768;18.608;2024-01-30T02:10:23;-1.90;99.90
11925;DHT22;6022;48.768;18.608;2024-01-30T02:12:50;-2.20;99.90
11925;DHT22;6022;48.768;18.608;2024-01-30T02:15:17;-2.20;99.90
11925;DHT22;6022;48.768;18.608;2024-01-30T02:17:45;-2.10;99.90
11925;DHT22;6022;48.768;18.608;2024-01-30T02:20:12;-2.10;99.90
11925;DHT22;6022;48.768;18.608;2024-01-30T02:22:40;-2.30;99.90
11925;DHT22;6022;48.768;18.608;2024-01-30T02:25:09;-1.90;99.90
11925;DHT22;6022;48.768;18.608;2024-01-30T02:27:36;-2.00;99.90
11925;DHT22;6022;48.768;18.608;2024-01-30T02:30:04;-1.90;99.90
11925;DHT22;6022;48.768;18.608;2024-01-30T02:32:32;-2.00;99.90
11925;DHT22;6022;48.768;18.608;2024-01-30T02:34:59;-2.10;99.90
11925;DHT22;6022;48.768;18.608;2024-01-30T02:37:27;-2.10;99.90
11925;DHT22;6022;48.768;18.608;2024-01-30T02:39:54;-2.30;99.90
11925;DHT22;6022;48.768;18.608;2024-01-30T02:42:21;-2.30;99.90
11925;DHT22;6022;48.768;18.608;2024-01-30T02:44:48;-2.20;99.90
11925;DHT22;6022;48.768;18.608;2024-01-30T02:47:15;-2.30;99.90
11925;DHT22;6022;48.768;18.608;2024-01-30T02:49:42;-2.50;99.90
11925;DHT22;6022;48.768;18.608;2024-01-30T02:52:10;-2.40;99.90
11925;DHT22;6022;48.768;18.608;2024-01-30T02:54:37;-2.30;99.90
11925;DHT22;6022;48.768;18.608;2024-01-30T02:57:04;-2.40;99.90
11925;DHT22;6022;48.768;18.608;2024-01-30T02:59:31;-2.20;99.90
11925;DHT22;6022;48.768;18.608;2024-01-30T03:02:00;-2.40;99.90
11925;DHT22;6022;48.768;18.608;2024-01-30T03:04:27;-2.40;99.90
11925;DHT22;6022;48.768;18.608;2024-01-30T03:06:57;-1.90;99.90
11925;DHT22;6022;48.768;18.608;2024-01-30T03:09:24;-2.30;99.90
11925;DHT22;6022;48.768;18.608;2024-01-30T03:11:51;-2.30;99.90
11925;DHT22;6022;48.768;18.608;2024-01-30T03:14:18;-2.20;99.90
11925;DHT22;6022;48.768;18.608;2024-01-30T03:16:45;-2.30;99.90
11925;DHT22;6022;48.768;18.608;2024-01-30T03:19:13;-2.30;99.90
11925;DHT22;6022;48.768;18.608;2024-01-30T03:21:40;-2.30;99.90
11925;DHT22;6022;48.768;18.608;2024-01-30T03:24:07;-2.10;99.90
11925;DHT22;6022;48.768;18.608;2024-01-30T03:26:35;-2.10;99.90
11925;DHT22;6022;48.768;18.608;2024-01-30T03:29:03;-2.20;99.90
11925;DHT22;6022;48.768;18.608;2024-01-30T03:31:30;-2.70;99.90
11925;DHT22;6022;48.768;18.608;2024-01-30T03:33:57;-2.40;99.90
11925;DHT22;6022;48.768;18.608;2024-01-30T03:36:25;-2.20;99.90
11925;DHT22;6022;48.768;18.608;2024-01-30T03:38:52;-2.50;99.90
11925;DHT22;6022;48.768;18.608;2024-01-30T03:41:20;-2.60;99.90
11925;DHT22;6022;48.768;18.608;2024-01-30T03:43:47;-2.70;99.90
11925;DHT22;6022;48.768;18.608;2024-01-30T03:46:14;-2.70;99.90
11925;DHT22;6022;48.768;18.608;2024-01-30T03:48:41;-2.70;99.90
11925;DHT22;6022;48.768;18.608;2024-01-30T03:51:09;-2.70;99.90
11925;DHT22;6022;48.768;18.608;2024-01-30T03:53:42;-3.00;99.90
11925;DHT22;6022;48.768;18.608;2024-01-30T03:56:11;-2.70;99.90
11925;DHT22;6022;48.768;18.608;2024-01-30T03:58:39;-2.40;99.90
11925;DHT22;6022;48.768;18.608;2024-01-30T04:01:07;-2.60;99.90
11925;DHT22;6022;48.768;18.608;2024-01-30T04:03:39;-2.70;99.90
11925;DHT22;6022;48.768;18.608;2024-01-30T04:06:07;-2.80;99.90
11925;DHT22;6022;48.768;18.608;2024-01-30T04:08:35;-2.70;99.90
11925;DHT22;6022;48.768;18.608;2024-01-30T04:11:06;-2.70;99.90
11925;DHT22;6022;48.768;18.608;2024-01-30T04:13:33;-2.70;99.90
11925;DHT22;6022;48.768;18.608;2024-01-30T04:16:01;-2.80;99.90
11925;DHT22;6022;48.768;18.608;2024-01-30T04:18:29;-2.70;99.90
11925;DHT22;6022;48.768;18.608;2024-01-30T04:20:57;-2.70;99.90
11925;DHT22;6022;48.768;18.608;2024-01-30T04:23:24;-2.90;99.90
11925;DHT22;6022;48.768;18.608;2024-01-30T04:25:51;-2.40;99.90
11925;DHT22;6022;48.768;18.608;2024-01-30T04:28:18;-2.80;99.90
11925;DHT22;6022;48.768;18.608;2024-01-30T04:30:46;-2.60;99.90
11925;DHT22;6022;48.768;18.608;2024-01-30T04:33:13;-3.00;99.90
11925;DHT22;6022;48.768;18.608;2024-01-30T04:35:40;-2.90;99.90
11925;DHT22;6022;48.768;18.608;2024-01-30T04:38:09;-2.60;99.90
11925;DHT22;6022;48.768;18.608;2024-01-30T04:40:37;-2.50;99.90
11925;DHT22;6022;48.768;18.608;2024-01-30T04:43:04;-2.60;99.90
11925;DHT22;6022;48.768;18.608;2024-01-30T04:45:32;-2.60;99.90
11925;DHT22;6022;48.768;18.608;2024-01-30T04:47:59;-3.00;99.90
11925;DHT22;6022;48.768;18.608;2024-01-30T04:50:26;-2.80;99.90
11925;DHT22;6022;48.768;18.608;2024-01-30T04:52:53;-2.70;99.90
11925;DHT22;6022;48.768;18.608;2024-01-30T04:55:21;-3.20;99.90
11925;DHT22;6022;48.768;18.608;2024-01-30T04:57:49;-2.70;99.90
11925;DHT22;6022;48.768;18.608;2024-01-30T05:00:22;-2.60;99.90
11925;DHT22;6022;48.768;18.608;2024-01-30T05:02:50;-2.70;99.90
11925;DHT22;6022;48.768;18.608;2024-01-30T05:05:17;-3.10;99.90
11925;DHT22;6022;48.768;18.608;2024-01-30T05:07:44;-2.90;99.90
11925;DHT22;6022;48.768;18.608;2024-01-30T05:10:11;-2.90;99.90
11925;DHT22;6022;48.768;18.608;2024-01-30T05:12:41;-3.00;99.90
11925;DHT22;6022;48.768;18.608;2024-01-30T05:15:08;-2.80;99.90
11925;DHT22;6022;48.768;18.608;2024-01-30T05:17:36;-3.10;99.90
11925;DHT22;6022;48.768;18.608;2024-01-30T05:20:03;-3.20;99.90
11925;DHT22;6022;48.768;18.608;2024-01-30T05:22:34;-3.10;99.90
11925;DHT22;6022;48.768;18.608;2024-01-30T05:25:02;-3.20;99.90
11925;DHT22;6022;48.768;18.608;2024-01-30T05:27:32;-2.90;99.90
11925;DHT22;6022;48.768;18.608;2024-01-30T05:30:02;-3.10;99.90
11925;DHT22;6022;48.768;18.608;2024-01-30T05:32:29;-3.10;99.90
11925;DHT22;6022;48.768;18.608;2024-01-30T05:34:57;-3.10;99.90
11925;DHT22;6022;48.768;18.608;2024-01-30T05:37:24;-2.90;99.90
11925;DHT22;6022;48.768;18.608;2024-01-30T05:39:52;-3.00;99.90
11925;DHT22;6022;48.768;18.608;2024-01-30T05:42:21;-2.90;99.90
11925;DHT22;6022;48.768;18.608;2024-01-30T05:44:51;-2.90;99.90
11925;DHT22;6022;48.768;18.608;2024-01-30T05:47:20;-3.30;99.90
11925;DHT22;6022;48.768;18.608;2024-01-30T05:49:50;-2.90;99.90
11925;DHT22;6022;48.768;18.608;2024-01-30T05:52:17;-3.10;99.90
11925;DHT22;6022;48.768;18.608;2024-01-30T05:54:48;-3.10;99.90
11925;DHT22;6022;48.768;18.608;2024-01-30T05:57:15;-3.50;99.90
11925;DHT22;6022;48.768;18.608;2024-01-30T05:59:43;-3.10;99.90
11925;DHT22;6022;48.768;18.608;2024-01-30T06:02:11;-3.10;99.90
11925;DHT22;6022;48.768;18.608;2024-01-30T06:04:38;-3.20;99.90
11925;DHT22;6022;48.768;18.608;2024-01-30T06:07:08;-3.30;99.90
11925;DHT22;6022;48.768;18.608;2024-01-30T06:09:36;-3.30;99.90
11925;DHT22;6022;48.768;18.608;2024-01-30T06:12:04;-3.30;99.90
11925;DHT22;6022;48.768;18.608;2024-01-30T06:14:32;-3.30;99.90
11925;DHT22;6022;48.768;18.608;2024-01-30T06:17:00;-3.20;99.90
11925;DHT22;6022;48.768;18.608;2024-01-30T06:19:27;-3.00;99.90
11925;DHT22;6022;48.768;18.608;2024-01-30T06:21:54;-3.40;99.90
11925;DHT22;6022;48.768;18.608;2024-01-30T06:24:24;-2.90;99.90
11925;DHT22;6022;48.768;18.608;2024-01-30T06:26:51;-3.50;99.90
11925;DHT22;6022;48.768;18.608;2024-01-30T06:29:18;-3.10;99.90
11925;DHT22;6022;48.768;18.608;2024-01-30T06:31:46;-3.30;99.90
11925;DHT22;6022;48.768;18.608;2024-01-30T06:34:16;-3.20;99.90
11925;DHT22;6022;48.768;18.608;2024-01-30T06:36:43;-3.10;99.90
11925;DHT22;6022;48.768;18.608;2024-01-30T06:39:11;-3.00;99.90
11925;DHT22;6022;48.768;18.608;2024-01-30T06:41:38;-3.10;99.90
11925;DHT22;6022;48.768;18.608;2024-01-30T06:44:09;-3.10;99.90
11925;DHT22;6022;48.768;18.608;2024-01-30T06:46:39;-3.10;99.90
11925;DHT22;6022;48.768;18.608;2024-01-30T06:49:06;-3.20;99.90
11925;DHT22;6022;48.768;18.608;2024-01-30T06:51:33;-3.10;99.90
11925;DHT22;6022;48.768;18.608;2024-01-30T06:54:01;-3.10;99.90
11925;DHT22;6022;48.768;18.608;2024-01-30T06:56:28;-3.20;99.90
11925;DHT22;6022;48.768;18.608;2024-01-30T06:58:55;-3.00;99.90
11925;DHT22;6022;48.768;18.608;2024-01-30T07:01:31;-3.10;99.90
11925;DHT22;6022;48.768;18.608;2024-01-30T07:04:01;-2.90;99.90
11925;DHT22;6022;48.768;18.608;2024-01-30T07:06:29;-2.90;99.90
11925;DHT22;6022;48.768;18.608;2024-01-30T07:08:56;-3.00;99.90
11925;DHT22;6022;48.768;18.608;2024-01-30T07:11:29;-2.40;99.90
11925;DHT22;6022;48.768;18.608;2024-01-30T07:13:57;-2.60;99.90
11925;DHT22;6022;48.768;18.608;2024-01-30T07:16:24;-2.50;99.90
11925;DHT22;6022;48.768;18.608;2024-01-30T07:18:51;-2.50;99.90
11925;DHT22;6022;48.768;18.608;2024-01-30T07:21:19;-2.20;99.90
11925;DHT22;6022;48.768;18.608;2024-01-30T07:23:48;-2.60;99.90
11925;DHT22;6022;48.768;18.608;2024-01-30T07:26:16;-2.50;99.90
11925;DHT22;6022;48.768;18.608;2024-01-30T07:28:43;-2.50;99.90
11925;DHT22;6022;48.768;18.608;2024-01-30T07:31:12;-2.10;99.90
11925;DHT22;6022;48.768;18.608;2024-01-30T07:33:39;-2.00;99.90
11925;DHT22;6022;48.768;18.608;2024-01-30T07:36:06;-1.70;99.90
11925;DHT22;6022;48.768;18.608;2024-01-30T07:38:34;-1.80;99.90
11925;DHT22;6022;48.768;18.608;2024-01-30T07:41:01;-1.80;99.90
11925;DHT22;6022;48.768;18.608;2024-01-30T07:43:29;-1.70;99.90
11925;DHT22;6022;48.768;18.608;2024-01-30T07:45:56;-1.40;99.90
11925;DHT22;6022;48.768;18.608;2024-01-30T07:48:24;-1.30;99.90
11925;DHT22;6022;48.768;18.608;2024-01-30T07:50:51;-1.20;99.90
11925;DHT22;6022;48.768;18.608;2024-01-30T07:53:18;-0.50;99.90
11925;DHT22;6022;48.768;18.608;2024-01-30T07:55:47;-0.50;99.90
11925;DHT22;6022;48.768;18.608;2024-01-30T07:58:17;-0.10;99.90
11925;DHT22;6022;48.768;18.608;2024-01-30T08:00:44;0.20;99.90
11925;DHT22;6022;48.768;18.608;2024-01-30T08:03:12;0.80;99.90
11925;DHT22;6022;48.768;18.608;2024-01-30T08:05:39;0.90;99.90
11925;DHT22;6022;48.768;18.608;2024-01-30T08:08:07;1.20;99.90
11925;DHT22;6022;48.768;18.608;2024-01-30T08:10:34;1.50;99.90
11925;DHT22;6022;48.768;18.608;2024-01-30T08:13:01;2.20;99.90
11925;DHT22;6022;48.768;18.608;2024-01-30T08:15:31;2.50;99.90
11925;DHT22;6022;48.768;18.608;2024-01-30T08:18:02;3.00;99.90
11925;DHT22;6022;48.768;18.608;2024-01-30T08:20:30;3.00;99.90
11925;DHT22;6022;48.768;18.608;2024-01-30T08:22:58;3.20;99.90
11925;DHT22;6022;48.768;18.608;2024-01-30T08:25:27;3.70;99.90
11925;DHT22;6022;48.768;18.608;2024-01-30T08:27:54;4.00;99.90
11925;DHT22;6022;48.768;18.608;2024-01-30T08:30:21;4.10;99.90
11925;DHT22;6022;48.768;18.608;2024-01-30T08:32:48;4.80;99.90
11925;DHT22;6022;48.768;18.608;2024-01-30T08:35:16;4.80;99.90
11925;DHT22;6022;48.768;18.608;2024-01-30T08:37:43;5.00;99.90
11925;DHT22;6022;48.768;18.608;2024-01-30T08:40:11;4.90;99.90
11925;DHT22;6022;48.768;18.608;2024-01-30T08:42:38;5.00;99.90
11925;DHT22;6022;48.768;18.608;2024-01-30T08:45:05;5.30;99.90
11925;DHT22;6022;48.768;18.608;2024-01-30T08:47:34;4.90;99.90
11925;DHT22;6022;48.768;18.608;2024-01-30T08:50:01;5.00;99.90
11925;DHT22;6022;48.768;18.608;2024-01-30T08:52:28;4.80;99.90
11925;DHT22;6022;48.768;18.608;2024-01-30T08:55:00;4.80;99.90
11925;DHT22;6022;48.768;18.608;2024-01-30T08:57:27;5.10;99.90
11925;DHT22;6022;48.768;18.608;2024-01-30T08:59:56;5.20;99.90
11925;DHT22;6022;48.768;18.608;2024-01-30T09:02:23;5.50;99.90
11925;DHT22;6022;48.768;18.608;2024-01-30T09:04:51;5.80;99.90
11925;DHT22;6022;48.768;18.608;2024-01-30T09:07:18;5.50;99.90
11925;DHT22;6022;48.768;18.608;2024-01-30T09:09:46;5.70;99.90
11925;DHT22;6022;48.768;18.608;2024-01-30T09:12:15;5.70;99.90
11925;DHT22;6022;48.768;18.608;2024-01-30T09:14:46;6.10;99.90
11925;DHT22;6022;48.768;18.608;2024-01-30T09:17:22;6.50;99.90
11925;DHT22;6022;48.768;18.608;2024-01-30T09:19:50;6.70;99.90
11925;DHT22;6022;48.768;18.608;2024-01-30T09:22:17;6.50;99.90
11925;DHT22;6022;48.768;18.608;2024-01-30T09:24:45;6.70;99.90
11925;DHT22;6022;48.768;18.608;2024-01-30T09:27:12;6.80;99.90
11925;DHT22;6022;48.768;18.608;2024-01-30T09:29:39;6.90;99.90
11925;DHT22;6022;48.768;18.608;2024-01-30T09:32:07;6.60;99.90
11925;DHT22;6022;48.768;18.608;2024-01-30T09:34:37;6.80;99.90
11925;DHT22;6022;48.768;18.608;2024-01-30T09:37:04;7.10;99.90
11925;DHT22;6022;48.768;18.608;2024-01-30T09:39:31;6.20;99.90
11925;DHT22;6022;48.768;18.608;2024-01-30T09:42:26;6.90;99.90
11925;DHT22;6022;48.768;18.608;2024-01-30T09:44:58;7.20;99.90
11925;DHT22;6022;48.768;18.608;2024-01-30T09:47:26;7.80;99.90
11925;DHT22;6022;48.768;18.608;2024-01-30T09:49:55;7.90;99.90
11925;DHT22;6022;48.768;18.608;2024-01-30T09:52:23;8.00;99.90
11925;DHT22;6022;48.768;18.608;2024-01-30T09:54:51;8.10;99.90
11925;DHT22;6022;48.768;18.608;2024-01-30T09:57:20;8.40;99.90
11925;DHT22;6022;48.768;18.608;2024-01-30T09:59:47;8.30;99.90
11925;DHT22;6022;48.768;18.608;2024-01-30T10:02:15;8.20;99.90
11925;DHT22;6022;48.768;18.608;2024-01-30T10:04:44;8.10;99.90
11925;DHT22;6022;48.768;18.608;2024-01-30T10:07:12;8.20;99.90
11925;DHT22;6022;48.768;18.608;2024-01-30T10:09:39;8.20;99.90
11925;DHT22;6022;48.768;18.608;2024-01-30T10:12:08;8.30;99.90
11925;DHT22;6022;48.768;18.608;2024-01-30T10:14:40;8.70;99.90
11925;DHT22;6022;48.768;18.608;2024-01-30T10:17:12;8.50;99.90
11925;DHT22;6022;48.768;18.608;2024-01-30T10:19:53;9.10;99.90
11925;DHT22;6022;48.768;18.608;2024-01-30T10:22:20;8.80;99.90
11925;DHT22;6022;48.768;18.608;2024-01-30T10:24:48;9.10;99.90
11925;DHT22;6022;48.768;18.608;2024-01-30T10:27:16;8.80;99.90
11925;DHT22;6022;48.768;18.608;2024-01-30T10:29:43;8.70;99.90
11925;DHT22;6022;48.768;18.608;2024-01-30T10:32:10;8.80;99.90
11925;DHT22;6022;48.768;18.608;2024-01-30T10:34:37;9.30;99.90
11925;DHT22;6022;48.768;18.608;2024-01-30T10:37:10;9.00;99.90
11925;DHT22;6022;48.768;18.608;2024-01-30T10:39:45;9.00;99.90
11925;DHT22;6022;48.768;18.608;2024-01-30T10:42:14;9.10;99.90
11925;DHT22;6022;48.768;18.608;2024-01-30T10:44:48;9.70;99.90
11925;DHT22;6022;48.768;18.608;2024-01-30T10:47:49;9.80;99.90
11925;DHT22;6022;48.768;18.608;2024-01-30T10:50:17;9.40;99.90
11925;DHT22;6022;48.768;18.608;2024-01-30T10:52:46;9.70;99.90
11925;DHT22;6022;48.768;18.608;2024-01-30T10:55:15;9.80;99.90
11925;DHT22;6022;48.768;18.608;2024-01-30T10:57:44;9.80;99.90
11925;DHT22;6022;48.768;18.608;2024-01-30T11:00:15;9.90;99.90
11925;DHT22;6022;48.768;18.608;2024-01-30T11:02:52;9.70;99.90
11925;DHT22;6022;48.768;18.608;2024-01-30T11:05:27;9.70;99.90
11925;DHT22;6022;48.768;18.608;2024-01-30T11:08:09;10.20;99.90
11925;DHT22;6022;48.768;18.608;2024-01-30T11:10:47;10.20;99.90
11925;DHT22;6022;48.768;18.608;2024-01-30T11:13:15;10.30;99.90
11925;DHT22;6022;48.768;18.608;2024-01-30T11:15:43;10.20;99.90
11925;DHT22;6022;48.768;18.608;2024-01-30T11:18:10;10.30;99.90
11925;DHT22;6022;48.768;18.608;2024-01-30T11:20:38;10.30;99.90
11925;DHT22;6022;48.768;18.608;2024-01-30T11:23:12;10.30;99.90
11925;DHT22;6022;48.768;18.608;2024-01-30T11:25:39;10.50;99.90
11925;DHT22;6022;48.768;18.608;2024-01-30T11:28:13;10.30;99.90
11925;DHT22;6022;48.768;18.608;2024-01-30T11:30:42;10.30;99.90
11925;DHT22;6022;48.768;18.608;2024-01-30T11:33:12;10.30;99.90
11925;DHT22;6022;48.768;18.608;2024-01-30T11:35:42;10.40;99.90
11925;DHT22;6022;48.768;18.608;2024-01-30T11:38:13;10.50;99.90
11925;DHT22;6022;48.768;18.608;2024-01-30T11:40:45;10.30;99.90
11925;DHT22;6022;48.768;18.608;2024-01-30T11:43:12;10.50;99.90
11925;DHT22;6022;48.768;18.608;2024-01-30T11:45:40;10.50;99.90
11925;DHT22;6022;48.768;18.608;2024-01-30T11:48:08;10.50;99.90
11925;DHT22;6022;48.768;18.608;2024-01-30T11:50:39;10.60;99.90
11925;DHT22;6022;48.768;18.608;2024-01-30T11:53:09;10.60;99.90
11925;DHT22;6022;48.768;18.608;2024-01-30T11:55:37;10.90;99.90
11925;DHT22;6022;48.768;18.608;2024-01-30T11:58:05;11.10;99.90
11925;DHT22;6022;48.768;18.608;2024-01-30T12:00:33;10.60;99.90
11925;DHT22;6022;48.768;18.608;2024-01-30T12:03:01;10.70;99.90
11925;DHT22;6022;48.768;18.608;2024-01-30T12:05:30;10.90;99.90
11925;DHT22;6022;48.768;18.608;2024-01-30T12:07:58;11.00;99.90
11925;DHT22;6022;48.768;18.608;2024-01-30T12:10:29;11.20;99.90
11925;DHT22;6022;48.768;18.608;2024-01-30T12:12:57;11.10;99.90
11925;DHT22;6022;48.768;18.608;2024-01-30T12:15:25;11.40;99.90
11925;DHT22;6022;48.768;18.608;2024-01-30T12:18:04;11.20;99.90
11925;DHT22;6022;48.768;18.608;2024-01-30T12:20:33;11.30;99.90
11925;DHT22;6022;48.768;18.608;2024-01-30T12:23:01;10.80;98.70
11925;DHT22;6022;48.768;18.608;2024-01-30T12:25:28;11.20;99.30
11925;DHT22;6022;48.768;18.608;2024-01-30T12:27:55;11.10;99.40
11925;DHT22;6022;48.768;18.608;2024-01-30T12:30:22;10.90;99.60
11925;DHT22;6022;48.768;18.608;2024-01-30T12:32:50;11.20;99.80
11925;DHT22;6022;48.768;18.608;2024-01-30T12:35:19;11.20;99.70
11925;DHT22;6022;48.768;18.608;2024-01-30T12:37:48;11.00;99.30
11925;DHT22;6022;48.768;18.608;2024-01-30T12:40:17;11.30;99.20
11925;DHT22;6022;48.768;18.608;2024-01-30T12:42:46;11.20;97.80
11925;DHT22;6022;48.768;18.608;2024-01-30T12:45:17;11.20;96.90
11925;DHT22;6022;48.768;18.608;2024-01-30T12:47:49;11.10;96.50
11925;DHT22;6022;48.768;18.608;2024-01-30T12:50:17;11.20;97.20
11925;DHT22;6022;48.768;18.608;2024-01-30T12:52:45;11.00;96.10
11925;DHT22;6022;48.768;18.608;2024-01-30T12:55:16;11.10;96.70
11925;DHT22;6022;48.768;18.608;2024-01-30T12:57:44;10.80;95.60
11925;DHT22;6022;48.768;18.608;2024-01-30T13:00:13;10.80;95.90
11925;DHT22;6022;48.768;18.608;2024-01-30T13:02:40;10.70;96.40
11925;DHT22;6022;48.768;18.608;2024-01-30T13:05:10;10.60;96.70
11925;DHT22;6022;48.768;18.608;2024-01-30T13:07:37;10.10;97.60
11925;DHT22;6022;48.768;18.608;2024-01-30T13:10:05;10.00;98.10
11925;DHT22;6022;48.768;18.608;2024-01-30T13:12:33;10.00;98.00
11925;DHT22;6022;48.768;18.608;2024-01-30T13:15:00;10.10;97.70
11925;DHT22;6022;48.768;18.608;2024-01-30T13:17:28;9.80;98.70
11925;DHT22;6022;48.768;18.608;2024-01-30T13:19:59;10.30;99.10
11925;DHT22;6022;48.768;18.608;2024-01-30T13:22:37;10.10;99.30
11925;DHT22;6022;48.768;18.608;2024-01-30T13:25:06;9.80;99.10
11925;DHT22;6022;48.768;18.608;2024-01-30T13:27:35;9.80;99.40
11925;DHT22;6022;48.768;18.608;2024-01-30T13:30:06;9.90;99.60
11925;DHT22;6022;48.768;18.608;2024-01-30T13:32:35;9.60;99.00
11925;DHT22;6022;48.768;18.608;2024-01-30T13:35:03;9.70;99.60
11925;DHT22;6022;48.768;18.608;2024-01-30T13:37:30;9.50;99.90
11925;DHT22;6022;48.768;18.608;2024-01-30T13:39:58;9.60;99.90
11925;DHT22;6022;48.768;18.608;2024-01-30T13:42:27;9.60;99.90
11925;DHT22;6022;48.768;18.608;2024-01-30T13:44:54;9.40;99.90
11925;DHT22;6022;48.768;18.608;2024-01-30T13:47:24;9.10;99.90
11925;DHT22;6022;48.768;18.608;2024-01-30T13:49:52;9.50;99.90
11925;DHT22;6022;48.768;18.608;2024-01-30T13:52:20;9.20;99.90
11925;DHT22;6022;48.768;18.608;2024-01-30T13:54:51;9.40;99.90
11925;DHT22;6022;48.768;18.608;2024-01-30T13:57:19;9.60;99.90
11925;DHT22;6022;48.768;18.608;2024-01-30T13:59:48;9.30;99.90
11925;DHT22;6022;48.768;18.608;2024-01-30T14:02:16;9.30;99.90
11925;DHT22;6022;48.768;18.608;2024-01-30T14:04:43;8.80;99.90
11925;DHT22;6022;48.768;18.608;2024-01-30T14:07:10;8.90;99.90
11925;DHT22;6022;48.768;18.608;2024-01-30T14:09:38;9.00;99.90
11925;DHT22;6022;48.768;18.608;2024-01-30T14:12:05;9.30;99.90
11925;DHT22;6022;48.768;18.608;2024-01-30T14:14:32;9.10;99.90
11925;DHT22;6022;48.768;18.608;2024-01-30T14:17:00;9.10;99.90
11925;DHT22;6022;48.768;18.608;2024-01-30T14:19:27;9.10;99.90
11925;DHT22;6022;48.768;18.608;2024-01-30T14:21:54;9.00;99.90
11925;DHT22;6022;48.768;18.608;2024-01-30T14:24:22;9.00;99.90
11925;DHT22;6022;48.768;18.608;2024-01-30T14:26:49;8.80;99.90
11925;DHT22;6022;48.768;18.608;2024-01-30T14:29:16;8.60;99.90
11925;DHT22;6022;48.768;18.608;2024-01-30T14:31:44;8.60;99.90
11925;DHT22;6022;48.768;18.608;2024-01-30T14:34:11;8.50;99.90
11925;DHT22;6022;48.768;18.608;2024-01-30T14:36:39;8.30;99.90
11925;DHT22;6022;48.768;18.608;2024-01-30T14:39:08;7.80;99.90
11925;DHT22;6022;48.768;18.608;2024-01-30T14:41:36;8.30;99.90
11925;DHT22;6022;48.768;18.608;2024-01-30T14:44:09;7.90;99.90
11925;DHT22;6022;48.768;18.608;2024-01-30T14:46:43;7.90;99.90
11925;DHT22;6022;48.768;18.608;2024-01-30T14:49:13;7.70;99.90
11925;DHT22;6022;48.768;18.608;2024-01-30T14:51:45;8.00;99.90
11925;DHT22;6022;48.768;18.608;2024-01-30T14:54:12;7.90;99.90
11925;DHT22;6022;48.768;18.608;2024-01-30T14:56:40;7.80;99.90
11925;DHT22;6022;48.768;18.608;2024-01-30T14:59:07;7.70;99.90
11925;DHT22;6022;48.768;18.608;2024-01-30T15:01:34;7.70;99.90
11925;DHT22;6022;48.768;18.608;2024-01-30T15:04:02;7.80;99.90
11925;DHT22;6022;48.768;18.608;2024-01-30T15:06:31;7.30;99.90
11925;DHT22;6022;48.768;18.608;2024-01-30T15:08:59;7.30;99.90
11925;DHT22;6022;48.768;18.608;2024-01-30T15:11:33;7.60;99.90
11925;DHT22;6022;48.768;18.608;2024-01-30T15:14:03;7.60;99.90
11925;DHT22;6022;48.768;18.608;2024-01-30T15:16:45;7.90;99.90
11925;DHT22;6022;48.768;18.608;2024-01-30T15:19:24;7.50;99.90
11925;DHT22;6022;48.768;18.608;2024-01-30T15:22:03;7.50;99.90
11925;DHT22;6022;48.768;18.608;2024-01-30T15:24:33;7.00;99.90
11925;DHT22;6022;48.768;18.608;2024-01-30T15:27:03;6.90;99.90
11925;DHT22;6022;48.768;18.608;2024-01-30T15:29:31;7.10;99.90
11925;DHT22;6022;48.768;18.608;2024-01-30T15:32:02;7.10;99.90
11925;DHT22;6022;48.768;18.608;2024-01-30T15:34:32;6.70;99.90
11925;DHT22;6022;48.768;18.608;2024-01-30T15:37:03;6.90;99.90
11925;DHT22;6022;48.768;18.608;2024-01-30T15:39:30;6.50;99.90
11925;DHT22;6022;48.768;18.608;2024-01-30T15:41:58;6.50;99.90
11925;DHT22;6022;48.768;18.608;2024-01-30T15:44:27;6.60;99.90